Maydena Post Office, Tasmania

7:35 AM EST on July 25, 2014 (GMT +1000)
Hamilton (ITASMANI46) Elev 312 ft | 42.55 °S, 146.84 °E | Change Station

Current weather conditions updated 7 seconds ago

Mostly Cloudy
Mostly Cloudy
32.2 °F
Feels Like 32 °F
N
0.0
Wind Variable Wind from North
Gusts 0.0 mph

Today is forecast to be Much Warmer than yesterday.

Today
High -- | Low -- °F
--% Chance of Precip.
Yesterday
High -- | Low -- °F
Precip. -- in
7:32 AM 5:08 PM
Waning Crescent, 4% visible
Pressure 30.04 in
Visibility 6.2 miles
Clouds Few 2000 ft
Mostly Cloudy 12500 ft
Windchill 32 °F
Dew Point 30 °F
Humidity 93%
Rainfall 0.00 in
Snow Depth Not available.
UV 0 out of 12
Pollen Not available.
Air Quality Not available.
Flu Activity Not available.
METAR YMHB 242100Z 32007KT 9999 FEW020 BKN125 05/03 Q1017

More Conditions Fewer Conditions

Pressure 30.04 in
Visibility 6.2 miles
Clouds Few 2000 ft
Mostly Cloudy 12500 ft
Windchill 32 °F
Dew Point 30 °F
Humidity 93%
Rainfall 0.00 in
Snow Depth Not available.
UV 0 out of 12
Pollen Not available.
Air Quality Not available.
Flu Activity Not available.
METAR YMHB 242100Z 32007KT 9999 FEW020 BKN125 05/03 Q1017

More Conditions Fewer Conditions

10-Day Weather Forecast

Almanac

Astronomy

Jul. 25, 2014 Rise Set
Actual Time 7:32 AM EST 5:08 PM EST
Civil Twilight 7:01 AM EST 5:38 PM EST
Nautical Twilight 6:27 AM EST 6:13 PM EST
Astronomical Twilight 5:53 AM EST 6:46 PM EST
Moon 5:51 AM EST (7/25) 3:48 PM EST (7/25)
Length of Visible Light 10h 37m
Length of Day
9h 35m
Tomorrow will be 1m 53s longer.
Waning Crescent, 4% of the Moon is Illuminated
Jul 24
Waning Crescent
Jul 26
New
Aug 3
First Quarter
Aug 10
Full
Aug 17
Last Quarter

Yesterday's Extremes

Country Highs Country Lows

Community

WunderPhotos

Upload Photos

1,737,133 photos uploaded!

WunderBlogs® & News

Nearby

Snow Depth

Not available.

Earthquake Activity

City Distance Mag. Time & Date
No recent earthquake activity has been reported nearby.
Minimum magnitude displayed is 2.5.

Coastal Water Temperatures

Place Temperature
No Stations Reporting

Nearby Weather Stations

Station Location Temp. Windchill Dew Point Humidity Wind Precip. Elev Updated Type
Hamilton, Hamilton 32.2 °F 32 °F 30 °F 93% North  at  0.0 mph 0.00 in / hr 312 ft 7:35 AM EST Rapid Fire
forest, Lachlan 39.0 °F 39 °F 38 °F 96% NE  at  1.2 mph 0.00 in / hr 1201 ft 7:35 AM EST Rapid Fire
TYGA-FM, New Norfolk 34.2 °F 34 °F 33 °F 97% SE  at  0.0 mph 0.00 in / hr 154 ft 7:30 AM EST Normal

Show More Stations Show Fewer Stations